Kenai Municipal Airport Kenai US
ICAO: PAEN
IATA:
Category: Medium
Scheduled Services:

Elevation: 99 ft
TransAlt. 18000 ft.

Airport Communications:
ATIS:120.3
ANCHORAGE CNTR:125.7
CTAF:121.3
RDO:122.65
GND:121.9
TWEB:117.6
TWR:121.3

PAEN Zoom In..

If you have problems with the map follow the link
https://www.worldairports.se/pages/airport.php?
ICAO=PAEN

Runways:

(A) RW 01L length 7830 ft width 150 ft
---- / hdg 12

(B) RW 01R length 2000 ft width 60 ft
---- / hdg 12

(C) RW 19L length 2000 ft width 60 ft
---- / hdg 192

(D) RW 19R length 7830 ft width 150 ft
ILS 108.90 / hdg 192

Location; PAEN
Day. 23 / Time. 22.53 Zulu
* Altimeter: 29.51
* Temperature: -19° c. 2.2°f.
* Wind from: 000° Speed 00 kn.
Dewpoint: -21° c.
Visibility: 10 Statute Miles.
Clouds: Clear (automated report).

PAEN 232253Z 00000KT 10SM CLR M19/M21 A2951 RMK AO2 SLP999 T11891211


Wind - Calm.

 
 
jpsmedia worldairports.se 2020   terms of use